Auburndale, Florida
Current Conditions -  °F | °C
As of 9:53 PM on Monday 26 Jan 2015 (Local Time) from KGIF Reporting Station
Clear Clear  
Wind Chill: 12°   Ceiling: Unl
Heat Index: 12°   Visibility: 10mi
Dew Point:   Wind: 9mph
Humidity: 75%   Direction: 290°WNW
Pressure: 29.97"   Gusts: NA
Location:  28.06°N, 81.78°W
Report Text: KGIF 270253Z AUTO 29008KT 10SM CLR 12/08 A2997 RMK AO2 SLP148 T01220078 53014
Loading
Personal Weather Stations






























Interactive Weather Map New forecast layout! Learn more

10-Day Weather Forecast

Advertisements
Track Severe Weather on mobile